Time;durP1;ratioP1;P1;durP2;ratioP2;P2;SDS_P1;SDS_P2;PMS_P1;PMS_P2;Temp;Humidity;BMP_temperature;BMP_pressure;BME280_temperature;BME280_humidity;BME280_pressure;Samples;Min_cycle;Max_cycle;Signal;HPM_P1;HPM_P2
2023/09/13 00:01:56;;;;;;;0.98;0.98;;;;;;;17.33;nan;61399.66;5093779;28;20177;-67
2023/09/13 00:04:21;;;;;;;0.60;0.60;;;;;;;17.00;nan;61368.06;5108234;28;20189;-68
2023/09/13 00:06:47;;;;;;;1.02;1.02;;;;;;;17.14;nan;61376.16;5090720;28;20605;-66
2023/09/13 00:09:13;;;;;;;1.42;1.33;;;;;;;17.22;nan;61359.94;5098714;28;20223;-67
2023/09/13 00:11:39;;;;;;;0.93;0.93;;;;;;;16.94;nan;61371.59;5090828;28;20285;-66
2023/09/13 00:14:04;;;;;;;0.95;0.95;;;;;;;16.89;nan;61330.38;5091448;28;20169;-67
2023/09/13 00:16:30;;;;;;;1.55;1.20;;;;;;;16.85;nan;61318.13;5098742;28;20678;-67
2023/09/13 00:18:56;;;;;;;1.75;1.17;;;;;;;16.79;nan;61319.06;5102283;28;20177;-67
2023/09/13 00:21:21;;;;;;;1.58;1.48;;;;;;;16.99;nan;61344.28;5091638;28;20173;-66
2023/09/13 00:23:47;;;;;;;0.98;0.98;;;;;;;16.84;nan;61314.41;5091270;28;20188;-67
2023/09/13 00:26:16;;;;;;;0.80;0.80;;;;;;;16.87;nan;61292.00;5090754;28;20192;-66
2023/09/13 00:28:41;;;;;;;1.50;1.40;;;;;;;17.07;nan;61396.63;5091385;28;20310;-66
2023/09/13 00:31:10;;;;;;;0.80;0.80;;;;;;;16.90;nan;61491.50;5098279;28;20629;-65
2023/09/13 00:33:36;;;;;;;0.93;0.93;;;;;;;16.78;nan;61470.72;5098888;28;20176;-67
2023/09/13 00:36:01;;;;;;;1.00;1.00;;;;;;;16.81;nan;61313.03;5094581;28;20619;-67
2023/09/13 00:38:26;;;;;;;1.10;1.10;;;;;;;16.50;nan;61322.97;5106955;28;20558;-69
2023/09/13 00:40:52;;;;;;;0.80;0.80;;;;;;;16.53;nan;61294.84;5091171;28;20189;-66
2023/09/13 00:43:18;;;;;;;1.30;1.20;;;;;;;16.35;nan;61298.28;5098289;28;20177;-67
2023/09/13 00:45:46;;;;;;;1.08;1.08;;;;;;;16.45;nan;61219.34;5098532;28;20561;-66
2023/09/13 00:48:13;;;;;;;1.13;1.10;;;;;;;16.25;nan;61245.75;5091172;28;20188;-66
2023/09/13 00:50:39;;;;;;;0.80;0.80;;;;;;;16.59;nan;61330.03;5076157;28;20205;-67
2023/09/13 00:53:06;;;;;;;0.93;0.93;;;;;;;16.67;nan;61310.69;5103320;28;20558;-67
2023/09/13 00:55:32;;;;;;;0.90;0.90;;;;;;;16.36;nan;61286.53;5097016;28;20260;-67
2023/09/13 00:57:58;;;;;;;0.85;0.85;;;;;;;16.45;nan;61290.97;5090147;28;20272;-67
2023/09/13 01:00:24;;;;;;;3.45;1.75;;;;;;;16.35;nan;61308.59;5091100;28;20181;-67
2023/09/13 01:02:51;;;;;;;1.10;1.10;;;;;;;16.03;nan;61247.25;5105665;28;20184;-67
2023/09/13 01:05:17;;;;;;;1.80;1.02;;;;;;;16.18;nan;61259.03;5071131;28;20665;-67
2023/09/13 01:07:44;;;;;;;1.10;1.10;;;;;;;16.09;nan;61194.72;5088118;28;20264;-67
2023/09/13 01:10:10;;;;;;;0.75;0.75;;;;;;;15.86;nan;61192.00;5075364;28;20225;-67
2023/09/13 01:12:37;;;;;;;0.95;0.95;;;;;;;16.05;nan;61230.88;5089754;28;20184;-66
2023/09/13 01:15:07;;;;;;;0.85;0.85;;;;;;;15.94;nan;61201.00;5093273;28;20174;-66
2023/09/13 01:17:38;;;;;;;1.40;1.20;;;;;;;15.97;nan;61175.47;5107479;28;20177;-67
2023/09/13 01:20:15;;;;;;;1.00;1.00;;;;;;;15.87;nan;61170.47;5094277;28;20729;-67
2023/09/13 01:23:00;;;;;;;1.38;1.27;;;;;;;15.95;nan;61116.56;5098222;28;20173;-66
2023/09/13 01:25:53;;;;;;;0.82;0.82;;;;;;;15.87;nan;61066.88;5099594;28;20310;-67
2023/09/13 01:28:25;;;;;;;0.70;0.70;;;;;;;15.83;nan;61055.22;5091225;28;20192;-67
2023/09/13 01:30:51;;;;;;;1.00;1.00;;;;;;;15.77;nan;61084.50;5094871;28;20216;-66
2023/09/13 01:33:17;;;;;;;1.00;1.00;;;;;;;15.79;nan;61114.53;5111463;28;20177;-65
2023/09/13 01:35:42;;;;;;;1.15;1.15;;;;;;;15.75;nan;61102.31;5094894;28;20180;-67
2023/09/13 01:38:08;;;;;;;1.10;1.02;;;;;;;15.45;nan;61012.41;5093450;28;20606;-66
2023/09/13 01:40:39;;;;;;;0.88;0.88;;;;;;;15.53;nan;61015.72;5094262;28;20549;-67
2023/09/13 01:43:06;;;;;;;1.08;1.00;;;;;;;15.75;nan;61040.50;5096434;28;20208;-66
2023/09/13 01:45:33;;;;;;;1.13;1.13;;;;;;;15.71;nan;61008.22;5098043;28;20184;-65
2023/09/13 01:48:00;;;;;;;1.15;1.15;;;;;;;15.76;nan;61064.81;5080188;28;20572;-65
2023/09/13 01:50:26;;;;;;;1.00;1.00;;;;;;;15.55;nan;61139.53;5110186;28;20188;-65
2023/09/13 01:52:51;;;;;;;0.90;0.90;;;;;;;15.67;nan;61057.25;5093977;28;20195;-67
2023/09/13 01:55:17;;;;;;;0.90;0.90;;;;;;;15.58;nan;61034.22;5103783;28;20177;-67
2023/09/13 01:57:42;;;;;;;1.38;1.27;;;;;;;15.33;nan;61011.75;5113540;28;20164;-67
2023/09/13 02:00:08;;;;;;;0.80;0.80;;;;;;;15.42;nan;61027.03;5115192;27;20198;-66
2023/09/13 02:02:33;;;;;;;0.82;0.82;;;;;;;15.37;nan;61171.25;5097412;28;20209;-67
2023/09/13 02:04:59;;;;;;;1.27;1.23;;;;;;;15.52;nan;61074.38;5092818;28;20212;-67
2023/09/13 02:07:24;;;;;;;1.00;1.00;;;;;;;15.43;nan;61031.31;5099117;28;20268;-66
2023/09/13 02:09:52;;;;;;;1.20;1.10;;;;;;;15.55;nan;61066.88;5095345;28;20220;-66
2023/09/13 02:12:17;;;;;;;1.25;1.15;;;;;;;15.56;nan;61083.47;5110773;28;20224;-67
2023/09/13 02:14:43;;;;;;;0.77;0.77;;;;;;;15.77;nan;61186.97;5093249;28;20189;-66
2023/09/13 02:17:09;;;;;;;0.90;0.90;;;;;;;15.66;nan;61295.59;5096258;28;20221;-67
2023/09/13 02:19:35;;;;;;;0.98;0.98;;;;;;;15.54;nan;61135.84;5097323;28;20272;-66
2023/09/13 02:22:00;;;;;;;2.08;1.35;;;;;;;15.58;nan;61130.06;5108814;28;20334;-67
2023/09/13 02:24:26;;;;;;;1.60;1.50;;;;;;;15.35;nan;61138.13;5099016;28;20671;-66
2023/09/13 02:26:58;;;;;;;1.40;1.30;;;;;;;15.28;nan;61119.38;5102595;28;20177;-67
2023/09/13 02:29:24;;;;;;;0.90;0.90;;;;;;;15.52;nan;61125.28;5091177;28;20238;-66
2023/09/13 02:31:50;;;;;;;1.15;1.15;;;;;;;15.43;nan;61226.38;5099502;28;20652;-66
2023/09/13 02:34:16;;;;;;;0.90;0.90;;;;;;;15.21;nan;61054.88;5097212;28;20172;-66
2023/09/13 02:36:41;;;;;;;3.13;1.00;;;;;;;15.24;nan;61163.75;5095672;28;20184;-67
2023/09/13 02:39:36;;;;;;;1.10;1.10;;;;;;;15.31;nan;61074.41;5092025;28;20655;-67
2023/09/13 02:42:06;;;;;;;0.90;0.90;;;;;;;15.33;nan;61066.38;5091622;28;20181;-67
2023/09/13 02:44:33;;;;;;;1.25;1.20;;;;;;;15.17;nan;61020.03;5092616;28;20177;-66
2023/09/13 02:46:59;;;;;;;1.20;1.20;;;;;;;14.87;nan;60984.28;5110968;28;20191;-67
2023/09/13 02:49:25;;;;;;;1.17;1.17;;;;;;;14.95;nan;61006.13;5093179;28;20577;-66
2023/09/13 02:51:54;;;;;;;1.05;1.05;;;;;;;14.67;nan;60969.47;5096356;28;20208;-67
2023/09/13 02:54:21;;;;;;;0.77;0.77;;;;;;;14.77;nan;60965.31;5092083;28;20180;-67
2023/09/13 02:56:49;;;;;;;0.90;0.90;;;;;;;14.59;nan;60937.91;5100574;28;20242;-67
2023/09/13 02:59:15;;;;;;;1.10;1.10;;;;;;;14.75;nan;60885.38;5102494;28;20181;-67
2023/09/13 03:01:42;;;;;;;1.02;1.02;;;;;;;14.53;nan;60917.72;5090955;28;20181;-65
2023/09/13 03:04:07;;;;;;;1.30;1.27;;;;;;;14.69;nan;60876.03;5087746;28;20313;-67
2023/09/13 03:06:33;;;;;;;1.38;1.27;;;;;;;14.59;nan;60847.94;5096198;28;20608;-66
2023/09/13 03:08:58;;;;;;;1.63;1.52;;;;;;;14.44;nan;60781.69;5099503;28;20650;-65
2023/09/13 03:11:24;;;;;;;0.90;0.90;;;;;;;14.73;nan;60811.13;5097135;28;20260;-67
2023/09/13 03:13:49;;;;;;;1.13;1.13;;;;;;;14.70;nan;60787.75;5105766;28;20181;-66
2023/09/13 03:16:16;;;;;;;1.00;1.00;;;;;;;14.75;nan;60885.91;5092107;28;20223;-67
2023/09/13 03:18:42;;;;;;;1.20;1.17;;;;;;;14.71;nan;60829.44;5091406;28;20184;-67
2023/09/13 03:21:09;;;;;;;1.00;1.00;;;;;;;14.65;nan;60841.25;5094411;28;20196;-68
2023/09/13 03:23:39;;;;;;;1.10;1.00;;;;;;;14.51;nan;60822.97;5095760;28;20181;-67
2023/09/13 03:26:31;;;;;;;1.27;1.17;;;;;;;14.54;nan;60808.34;5091338;28;20626;-67
2023/09/13 03:28:57;;;;;;;0.90;0.90;;;;;;;14.49;nan;60805.84;5085529;28;20229;-67
2023/09/13 03:31:25;;;;;;;0.93;0.93;;;;;;;14.26;nan;60774.88;5096669;28;20203;-68
2023/09/13 03:33:53;;;;;;;1.20;1.20;;;;;;;14.25;nan;60696.69;5104997;28;20209;-66
2023/09/13 03:36:18;;;;;;;0.90;0.90;;;;;;;14.47;nan;60571.78;5094900;28;20177;-67
2023/09/13 03:38:45;;;;;;;1.42;1.33;;;;;;;14.61;nan;60442.94;5106363;28;20192;-66
2023/09/13 03:41:20;;;;;;;0.90;0.90;;;;;;;14.60;nan;60624.88;5091191;28;20216;-68
2023/09/13 03:43:46;;;;;;;1.70;1.60;;;;;;;14.74;nan;60755.69;5087406;28;20185;-67
2023/09/13 03:46:11;;;;;;;1.10;1.10;;;;;;;14.60;nan;60699.41;5094468;28;20226;-68
2023/09/13 03:48:38;;;;;;;1.00;1.00;;;;;;;14.33;nan;60694.81;5095332;28;20268;-67
2023/09/13 03:51:04;;;;;;;0.85;0.85;;;;;;;14.29;nan;60744.28;5090788;28;20300;-66
2023/09/13 03:53:30;;;;;;;1.50;1.40;;;;;;;14.33;nan;60653.72;5091605;28;20181;-67
2023/09/13 03:55:56;;;;;;;1.10;1.10;;;;;;;14.24;nan;60566.56;5090560;28;20182;-66
2023/09/13 03:58:22;;;;;;;1.50;1.40;;;;;;;13.94;nan;60516.16;5095703;28;20552;-67
2023/09/13 04:00:48;;;;;;;0.90;0.90;;;;;;;14.12;nan;60492.63;5104499;28;20169;-66
2023/09/13 04:03:15;;;;;;;1.65;1.55;;;;;;;14.13;nan;60396.16;5088651;28;20658;-67
2023/09/13 04:05:41;;;;;;;1.70;1.60;;;;;;;14.00;nan;60160.84;5089904;28;20652;-67
2023/09/13 04:08:06;;;;;;;3.50;1.80;;;;;;;13.94;nan;60125.91;5088969;28;20211;-66
2023/09/13 04:10:32;;;;;;;0.90;0.90;;;;;;;14.14;nan;60091.09;5090911;28;20240;-65
2023/09/13 04:12:57;;;;;;;1.23;1.23;;;;;;;14.13;nan;59944.19;5090884;28;20184;-64
2023/09/13 04:15:22;;;;;;;1.20;1.20;;;;;;;14.19;nan;59888.09;5090111;28;20274;-65
2023/09/13 04:17:48;;;;;;;1.60;1.50;;;;;;;14.02;nan;59967.91;5088502;28;20258;-67
2023/09/13 04:20:13;;;;;;;0.93;0.93;;;;;;;14.22;nan;59943.31;5089716;28;20258;-66
2023/09/13 04:22:39;;;;;;;1.42;1.13;;;;;;;14.31;nan;59881.38;5089243;28;20169;-69
2023/09/13 04:25:05;;;;;;;1.38;1.35;;;;;;;14.47;nan;60098.97;5095518;28;20174;-64
2023/09/13 04:27:31;;;;;;;0.73;0.73;;;;;;;14.48;nan;60468.09;5104108;28;20195;-65
2023/09/13 04:29:57;;;;;;;0.90;0.90;;;;;;;14.39;nan;60413.78;5094774;28;20259;-66
2023/09/13 04:32:26;;;;;;;1.00;1.00;;;;;;;14.48;nan;60423.84;5105708;28;20249;-66
2023/09/13 04:34:52;;;;;;;1.00;1.00;;;;;;;14.52;nan;60443.72;5093577;28;20183;-65
2023/09/13 04:37:17;;;;;;;1.02;1.02;;;;;;;14.78;nan;60384.78;5106594;28;20185;-67
2023/09/13 04:39:43;;;;;;;1.10;1.08;;;;;;;14.85;nan;60361.75;5076612;28;20189;-67
2023/09/13 04:42:08;;;;;;;1.00;1.00;;;;;;;14.83;nan;60504.06;5093515;28;20183;-67
2023/09/13 04:44:34;;;;;;;1.42;1.33;;;;;;;15.06;nan;60557.50;5089935;28;20173;-67
2023/09/13 04:47:02;;;;;;;1.40;1.20;;;;;;;15.30;nan;60645.56;5090397;28;20180;-67
2023/09/13 04:49:28;;;;;;;1.13;1.02;;;;;;;15.30;nan;60730.47;5087473;28;20737;-67
2023/09/13 04:51:54;;;;;;;1.02;1.02;;;;;;;15.38;nan;60801.19;5090297;28;20201;-67
2023/09/13 04:54:23;;;;;;;1.02;1.02;;;;;;;15.67;nan;60843.50;5093125;28;20619;-68
2023/09/13 04:56:49;;;;;;;1.13;1.13;;;;;;;15.55;nan;60894.94;5095805;28;20213;-67
2023/09/13 04:59:15;;;;;;;0.80;0.80;;;;;;;15.82;nan;60888.66;5095416;28;20188;-68
2023/09/13 05:01:40;;;;;;;1.13;1.13;;;;;;;15.87;nan;61082.91;5094261;28;20177;-67
2023/09/13 05:04:06;;;;;;;1.23;1.13;;;;;;;15.94;nan;60945.97;5091126;28;20663;-67
2023/09/13 05:06:31;;;;;;;1.05;1.05;;;;;;;16.07;nan;61073.38;5094271;28;20242;-68
2023/09/13 05:08:58;;;;;;;1.42;1.35;;;;;;;16.33;nan;61187.75;5093626;28;20658;-66
2023/09/13 05:11:24;;;;;;;0.95;0.95;;;;;;;16.51;nan;61148.72;5108655;28;20236;-66
2023/09/13 05:13:50;;;;;;;1.35;1.30;;;;;;;16.63;nan;61250.00;5096300;28;20177;-67
2023/09/13 05:16:19;;;;;;;2.25;1.95;;;;;;;16.85;nan;61367.16;5095935;28;20226;-67
2023/09/13 05:18:45;;;;;;;1.10;1.10;;;;;;;17.05;nan;61337.59;5102519;28;20170;-67
2023/09/13 05:21:11;;;;;;;1.00;1.00;;;;;;;17.15;nan;61349.47;5108502;28;20183;-67
2023/09/13 05:23:36;;;;;;;3.17;1.35;;;;;;;17.03;nan;61346.22;5098126;28;20208;-66
2023/09/13 05:26:02;;;;;;;0.77;0.77;;;;;;;17.20;nan;61380.38;5107284;28;20269;-68
2023/09/13 05:28:33;;;;;;;1.67;1.35;;;;;;;17.20;nan;61370.03;5099037;28;20189;-67
2023/09/13 05:30:59;;;;;;;4.07;1.45;;;;;;;17.52;nan;61379.81;5098099;28;20196;-67
2023/09/13 05:33:25;;;;;;;1.38;1.27;;;;;;;17.36;nan;61388.13;5099499;28;20177;-68
2023/09/13 05:35:51;;;;;;;0.88;0.88;;;;;;;17.66;nan;61449.94;5098499;28;20173;-67
2023/09/13 05:38:17;;;;;;;1.17;1.17;;;;;;;17.83;nan;61378.16;5093597;28;20188;-67
2023/09/13 05:40:42;;;;;;;1.70;1.60;;;;;;;17.91;nan;61459.56;5119782;27;20193;-67
2023/09/13 05:43:08;;;;;;;1.13;1.13;;;;;;;17.85;nan;61434.69;5101416;28;20639;-67
2023/09/13 05:45:33;;;;;;;1.38;1.27;;;;;;;18.16;nan;61430.41;5101972;28;20647;-67
2023/09/13 05:47:59;;;;;;;1.13;1.13;;;;;;;18.16;nan;61477.50;5102736;28;20238;-67
2023/09/13 05:50:28;;;;;;;1.33;1.23;;;;;;;18.26;nan;61514.69;5101134;28;20176;-67
2023/09/13 05:52:54;;;;;;;1.70;1.38;;;;;;;18.60;nan;61563.00;5091835;28;20260;-68
2023/09/13 05:55:19;;;;;;;0.68;0.68;;;;;;;18.78;nan;61404.81;5100347;28;20176;-68
2023/09/13 05:57:46;;;;;;;1.00;1.00;;;;;;;18.94;nan;61476.69;5104081;28;20196;-67
2023/09/13 06:00:14;;;;;;;1.60;1.45;;;;;;;19.21;nan;61494.28;5092901;28;20176;-68
2023/09/13 06:02:39;;;;;;;1.20;1.20;;;;;;;19.26;nan;61522.69;5092498;28;20172;-68
2023/09/13 06:05:06;;;;;;;1.05;1.05;;;;;;;19.33;nan;61541.53;5097801;28;20168;-67
2023/09/13 06:07:31;;;;;;;0.93;0.93;;;;;;;19.29;nan;61560.34;5094323;28;20648;-67
2023/09/13 06:09:58;;;;;;;1.05;1.05;;;;;;;19.53;nan;61550.13;5096741;28;20253;-68
2023/09/13 06:12:24;;;;;;;1.30;1.20;;;;;;;19.46;nan;61597.19;5107907;28;20193;-68
2023/09/13 06:14:53;;;;;;;0.80;0.80;;;;;;;19.40;nan;61642.19;5095364;28;20196;-67
2023/09/13 06:17:19;;;;;;;1.02;0.93;;;;;;;19.63;nan;61574.41;5108427;28;20648;-67
2023/09/13 06:19:44;;;;;;;0.73;0.73;;;;;;;19.79;nan;61629.38;5082742;28;20223;-67
2023/09/13 06:22:10;;;;;;;1.10;1.10;;;;;;;19.57;nan;61497.63;5095998;28;20179;-68
2023/09/13 06:24:35;;;;;;;0.65;0.65;;;;;;;20.12;nan;61640.28;5095040;28;20216;-67
2023/09/13 06:27:01;;;;;;;30.25;1.75;;;;;;;20.18;nan;61857.25;5110852;28;20196;-68
2023/09/13 06:29:26;;;;;;;0.90;0.90;;;;;;;20.58;nan;61715.25;5092182;28;20625;-68
2023/09/13 06:31:54;;;;;;;1.35;1.25;;;;;;;20.48;nan;61687.78;5111002;28;20184;-66
2023/09/13 06:34:19;;;;;;;0.90;0.90;;;;;;;20.10;nan;61816.47;5092288;28;20242;-67
2023/09/13 06:36:46;;;;;;;1.20;1.10;;;;;;;20.08;nan;61598.88;5111103;28;20600;-67
2023/09/13 06:39:11;;;;;;;0.90;0.90;;;;;;;20.32;nan;61760.47;5092390;28;20189;-67
2023/09/13 06:41:37;;;;;;;1.13;1.13;;;;;;;20.21;nan;61668.66;5110259;28;20206;-67
2023/09/13 06:44:03;;;;;;;1.80;1.65;;;;;;;20.29;nan;61638.25;5092923;28;20188;-67
2023/09/13 06:46:29;;;;;;;0.70;0.70;;;;;;;20.58;nan;61684.09;5108844;28;20556;-67
2023/09/13 06:48:54;;;;;;;3.28;1.65;;;;;;;20.72;nan;61715.00;5094627;28;20188;-67
2023/09/13 06:51:19;;;;;;;0.65;0.65;;;;;;;20.65;nan;61686.28;5096149;28;20188;-67
2023/09/13 06:53:45;;;;;;;0.90;0.90;;;;;;;20.53;nan;61769.28;5113423;28;20165;-67
2023/09/13 06:56:10;;;;;;;0.80;0.75;;;;;;;20.83;nan;61727.47;5113507;28;20180;-68
2023/09/13 06:58:36;;;;;;;0.70;0.70;;;;;;;20.78;nan;61825.13;5112926;28;20598;-67
2023/09/13 07:01:01;;;;;;;1.15;1.05;;;;;;;20.97;nan;61629.06;5112878;28;20204;-67
2023/09/13 07:03:26;;;;;;;1.25;1.15;;;;;;;21.10;nan;61838.66;5112904;28;20169;-69
2023/09/13 07:05:52;;;;;;;0.60;0.60;;;;;;;21.04;nan;61714.94;5113263;28;20192;-67
2023/09/13 07:08:17;;;;;;;0.70;0.70;;;;;;;21.33;nan;62014.44;5113328;28;20218;-68
2023/09/13 07:10:42;;;;;;;0.90;0.90;;;;;;;21.46;nan;61821.81;5112935;28;20229;-69
2023/09/13 07:13:08;;;;;;;0.90;0.90;;;;;;;21.68;nan;61799.44;5112990;28;20203;-68
2023/09/13 07:15:34;;;;;;;0.52;0.52;;;;;;;21.82;nan;61786.16;5111719;28;20833;-68
2023/09/13 07:17:59;;;;;;;1.67;1.58;;;;;;;21.87;nan;61951.06;5113042;28;20173;-68
2023/09/13 07:20:25;;;;;;;0.93;0.93;;;;;;;22.28;nan;61960.16;5112714;28;20180;-69
2023/09/13 07:22:50;;;;;;;1.27;1.17;;;;;;;22.37;nan;61887.09;5112487;28;20173;-69
2023/09/13 07:25:16;;;;;;;1.08;1.05;;;;;;;22.28;nan;62012.22;5102874;28;20250;-68
2023/09/13 07:27:41;;;;;;;0.88;0.88;;;;;;;22.54;nan;62057.44;5092096;28;20175;-68
2023/09/13 07:30:09;;;;;;;1.30;1.20;;;;;;;22.60;nan;61957.50;5091905;28;20569;-69
2023/09/13 07:32:36;;;;;;;1.23;1.13;;;;;;;22.74;nan;62009.91;5091816;28;20208;-69
2023/09/13 07:35:03;;;;;;;0.82;0.82;;;;;;;22.59;nan;62177.75;5092146;28;20195;-67
2023/09/13 07:37:30;;;;;;;0.70;0.70;;;;;;;22.50;nan;61894.03;5092028;28;20260;-69
2023/09/13 07:39:56;;;;;;;0.80;0.80;;;;;;;22.65;nan;61952.19;5092187;28;20173;-69
2023/09/13 07:42:22;;;;;;;1.10;1.10;;;;;;;22.77;nan;61934.59;5091961;28;20177;-69
2023/09/13 07:44:48;;;;;;;0.85;0.85;;;;;;;22.95;nan;61986.31;5091866;28;20234;-68
2023/09/13 07:47:13;;;;;;;0.80;0.80;;;;;;;22.99;nan;61928.31;5092118;28;20162;-66
2023/09/13 07:49:39;;;;;;;1.33;1.23;;;;;;;23.24;nan;62027.13;5091696;28;20711;-68
2023/09/13 07:52:04;;;;;;;1.25;1.15;;;;;;;22.68;nan;62049.94;5091686;28;20200;-67
2023/09/13 07:54:30;;;;;;;0.75;0.75;;;;;;;22.89;nan;62083.72;5091619;28;20181;-67
2023/09/13 07:56:55;;;;;;;0.88;0.88;;;;;;;23.22;nan;62019.06;5091869;28;20713;-67
2023/09/13 07:59:21;;;;;;;0.88;0.88;;;;;;;23.49;nan;62078.50;5091290;28;20177;-66
2023/09/13 08:01:47;;;;;;;0.50;0.50;;;;;;;23.64;nan;62100.81;5091702;28;20636;-68
2023/09/13 08:04:12;;;;;;;0.70;0.70;;;;;;;23.64;nan;62064.28;5091794;28;20170;-68
2023/09/13 08:06:41;;;;;;;0.80;0.80;;;;;;;23.89;nan;62308.25;5091503;28;20530;-66
2023/09/13 08:09:07;;;;;;;1.02;1.02;;;;;;;23.90;nan;62225.88;5091700;28;20254;-67
2023/09/13 08:11:32;;;;;;;0.60;0.60;;;;;;;24.24;nan;62261.50;5091085;28;20696;-67
2023/09/13 08:13:58;;;;;;;1.15;1.05;;;;;;;24.14;nan;62274.13;5091534;28;20157;-67
2023/09/13 08:16:23;;;;;;;0.77;0.77;;;;;;;24.28;nan;62264.00;5091484;28;20179;-68
2023/09/13 08:18:48;;;;;;;0.55;0.55;;;;;;;24.69;nan;62372.97;5089395;28;20737;-68
2023/09/13 08:21:14;;;;;;;0.63;0.63;;;;;;;24.66;nan;62241.47;5095584;28;20230;-68
2023/09/13 08:23:39;;;;;;;0.73;0.73;;;;;;;24.77;nan;62310.97;5103232;28;20271;-67
2023/09/13 08:26:05;;;;;;;0.60;0.60;;;;;;;24.76;nan;62343.81;5102277;28;20233;-67
2023/09/13 08:28:30;;;;;;;0.73;0.73;;;;;;;24.90;nan;62339.47;5102005;28;20220;-68
2023/09/13 08:30:56;;;;;;;1.17;1.08;;;;;;;25.07;nan;62460.31;5095700;28;20667;-67
2023/09/13 08:33:21;;;;;;;1.10;1.05;;;;;;;24.94;nan;62385.88;5113898;28;20181;-66
2023/09/13 08:35:47;;;;;;;0.85;0.85;;;;;;;24.87;nan;62317.75;5116163;28;20156;-66
2023/09/13 08:38:13;;;;;;;0.52;0.52;;;;;;;25.17;nan;62367.13;5115867;28;20169;-65
2023/09/13 08:40:46;;;;;;;0.93;0.90;;;;;;;25.14;nan;62371.53;5093036;28;20181;-66
2023/09/13 08:43:12;;;;;;;0.70;0.70;;;;;;;24.94;nan;62319.94;5116214;28;20274;-65
2023/09/13 08:45:38;;;;;;;0.80;0.80;;;;;;;25.25;nan;62365.78;5112813;28;20181;-66
2023/09/13 08:48:07;;;;;;;0.82;0.82;;;;;;;25.28;nan;62381.72;5104169;28;20184;-65
2023/09/13 08:50:34;;;;;;;0.60;0.60;;;;;;;25.28;nan;62423.59;5119421;28;20203;-65
2023/09/13 08:53:01;;;;;;;0.77;0.77;;;;;;;25.20;nan;62390.91;5118394;28;20172;-65
2023/09/13 08:55:27;;;;;;;1.40;1.30;;;;;;;25.03;nan;62390.94;5098028;28;20181;-67
2023/09/13 08:57:55;;;;;;;1.50;1.40;;;;;;;25.22;nan;62346.66;5115202;28;20232;-66
2023/09/13 09:00:20;;;;;;;1.25;1.15;;;;;;;25.37;nan;62397.25;5115487;28;20177;-67
2023/09/13 09:02:48;;;;;;;1.20;1.10;;;;;;;25.76;nan;62504.09;5115386;28;20218;-67
2023/09/13 09:05:15;;;;;;;0.88;0.88;;;;;;;25.63;nan;62455.78;5115359;28;20251;-67
2023/09/13 09:07:43;;;;;;;0.68;0.68;;;;;;;25.68;nan;62413.78;5115191;28;20176;-66
2023/09/13 09:10:12;;;;;;;1.40;1.00;;;;;;;25.60;nan;62420.94;5114555;28;20304;-66
2023/09/13 09:12:41;;;;;;;0.98;0.75;;;;;;;25.71;nan;62559.16;5115072;28;20196;-67
2023/09/13 09:15:08;;;;;;;0.60;0.60;;;;;;;25.80;nan;62448.47;5115373;28;20169;-68
2023/09/13 09:17:35;;;;;;;1.00;1.00;;;;;;;25.50;nan;62368.19;5114859;28;20662;-68
2023/09/13 09:20:01;;;;;;;0.40;0.40;;;;;;;25.41;nan;62404.44;5114682;28;20176;-68
2023/09/13 09:22:29;;;;;;;0.77;0.77;;;;;;;25.63;nan;62444.72;5115116;28;20172;-68
2023/09/13 09:24:59;;;;;;;1.33;0.90;;;;;;;25.80;nan;62462.09;5114674;28;20175;-67
2023/09/13 09:27:24;;;;;;;0.70;0.70;;;;;;;25.80;nan;62456.31;5114794;28;20181;-68
2023/09/13 09:29:59;;;;;;;1.00;1.00;;;;;;;26.06;nan;62511.66;5115000;28;20604;-67
2023/09/13 09:32:28;;;;;;;0.75;0.75;;;;;;;26.30;nan;62484.69;5114739;28;20202;-69
2023/09/13 09:34:55;;;;;;;0.73;0.73;;;;;;;26.62;nan;62567.91;5114497;28;20232;-69
2023/09/13 09:37:28;;;;;;;0.70;0.70;;;;;;;26.66;nan;62553.56;5114232;28;20655;-67
2023/09/13 09:39:54;;;;;;;0.60;0.60;;;;;;;26.95;nan;62641.88;5114058;28;20169;-68
2023/09/13 09:42:19;;;;;;;4.35;1.30;;;;;;;26.92;nan;62578.09;5114966;28;20218;-69
2023/09/13 09:44:44;;;;;;;0.65;0.65;;;;;;;27.01;nan;62593.63;5114776;28;20222;-68
2023/09/13 09:47:13;;;;;;;1.40;1.23;;;;;;;27.01;nan;62627.16;5114222;28;20214;-69
2023/09/13 09:49:40;;;;;;;1.15;0.85;;;;;;;26.87;nan;62640.56;5114232;28;20184;-67
2023/09/13 09:52:07;;;;;;;0.68;0.68;;;;;;;27.14;nan;62653.13;5114149;28;20747;-68
2023/09/13 09:54:34;;;;;;;0.63;0.63;;;;;;;27.23;nan;62644.50;5096275;28;20604;-69
2023/09/13 09:56:59;;;;;;;0.60;0.60;;;;;;;27.08;nan;62601.09;5114049;28;20272;-68
2023/09/13 09:59:28;;;;;;;0.82;0.80;;;;;;;27.27;nan;62677.38;5114473;28;20675;-68
2023/09/13 10:01:58;;;;;;;1.00;0.90;;;;;;;27.19;nan;62639.94;5113969;28;20264;-67
2023/09/13 10:04:23;;;;;;;1.20;0.95;;;;;;;27.40;nan;62716.47;5114235;28;20187;-68
2023/09/13 10:06:57;;;;;;;0.90;0.90;;;;;;;27.55;nan;62793.53;5114330;28;20172;-68
2023/09/13 10:09:23;;;;;;;0.68;0.68;;;;;;;27.40;nan;62826.16;5114107;28;20533;-67
2023/09/13 10:11:56;;;;;;;0.88;0.88;;;;;;;27.49;nan;62678.97;5113679;28;20271;-68
2023/09/13 10:14:27;;;;;;;1.02;0.98;;;;;;;27.60;nan;62741.50;5114051;28;20161;-69
2023/09/13 10:16:55;;;;;;;0.60;0.60;;;;;;;27.31;nan;62682.53;5113876;28;20680;-68
2023/09/13 10:19:23;;;;;;;0.75;0.75;;;;;;;27.04;nan;62633.81;5095667;28;20628;-68
2023/09/13 10:21:50;;;;;;;0.70;0.70;;;;;;;27.19;nan;62577.50;5113926;28;20636;-68
2023/09/13 10:24:20;;;;;;;0.50;0.50;;;;;;;27.11;nan;62633.38;5092186;28;20204;-68
2023/09/13 10:26:49;;;;;;;1.48;1.35;;;;;;;27.17;nan;62664.44;5108867;28;20177;-67
2023/09/13 10:29:24;;;;;;;0.75;0.75;;;;;;;27.19;nan;62650.44;5095352;28;20199;-67
2023/09/13 10:31:55;;;;;;;1.00;0.80;;;;;;;27.32;nan;62659.50;5096859;28;20661;-69
2023/09/13 10:34:25;;;;;;;0.90;0.90;;;;;;;27.27;nan;62630.13;5110488;28;20172;-66
2023/09/13 10:37:11;;;;;;;1.02;1.02;;;;;;;27.20;nan;62662.63;5087603;28;20209;-66
2023/09/13 10:40:11;;;;;;;1.33;1.30;;;;;;;27.47;nan;62692.41;5086998;28;20177;-69
2023/09/13 10:42:40;;;;;;;1.60;1.23;;;;;;;27.35;nan;62668.16;5077399;28;20258;-67
2023/09/13 10:45:07;;;;;;;1.48;1.38;;;;;;;27.15;nan;62659.53;5108640;28;20226;-69
2023/09/13 10:47:32;;;;;;;1.05;0.80;;;;;;;27.34;nan;62751.03;5088809;28;20257;-67
2023/09/13 10:50:01;;;;;;;0.63;0.63;;;;;;;27.61;nan;62711.09;5094445;28;20592;-67
2023/09/13 10:52:27;;;;;;;1.73;1.60;;;;;;;27.73;nan;62735.38;5110303;28;20208;-69
2023/09/13 10:54:53;;;;;;;0.82;0.82;;;;;;;27.59;nan;62727.22;5111020;28;20175;-66
2023/09/13 10:57:19;;;;;;;0.90;0.90;;;;;;;27.92;nan;62780.25;5111526;28;20259;-67
2023/09/13 10:59:46;;;;;;;0.85;0.75;;;;;;;27.86;nan;62729.28;5112900;28;20562;-67
2023/09/13 11:02:11;;;;;;;1.02;1.02;;;;;;;28.01;nan;62790.56;5105895;28;20532;-66
2023/09/13 11:04:38;;;;;;;0.90;0.90;;;;;;;28.15;nan;62813.97;5092809;28;20677;-66
2023/09/13 11:07:04;;;;;;;0.93;0.88;;;;;;;28.37;nan;62805.03;5092412;28;20192;-67
2023/09/13 11:09:31;;;;;;;1.55;1.08;;;;;;;28.16;nan;62820.94;5092546;28;20869;-67
2023/09/13 11:11:58;;;;;;;2.25;1.42;;;;;;;27.95;nan;62757.97;5092526;28;20287;-66
2023/09/13 11:14:28;;;;;;;0.80;0.80;;;;;;;27.82;nan;62874.44;5092759;28;20222;-69
2023/09/13 11:16:54;;;;;;;1.33;1.23;;;;;;;27.89;nan;62745.84;5092585;28;20191;-67
2023/09/13 11:19:27;;;;;;;1.20;1.10;;;;;;;28.22;nan;62885.09;5092168;28;20176;-67
2023/09/13 11:22:00;;;;;;;1.15;1.13;;;;;;;28.16;nan;62807.22;5092622;28;20636;-68
2023/09/13 11:24:43;;;;;;;0.65;0.65;;;;;;;28.15;nan;62888.16;5092321;28;20168;-68
2023/09/13 11:27:11;;;;;;;1.05;0.95;;;;;;;28.19;nan;62742.31;5092261;28;20686;-68
2023/09/13 11:29:46;;;;;;;0.88;0.88;;;;;;;28.06;nan;62786.38;5092030;28;20248;-68
2023/09/13 11:32:25;;;;;;;0.73;0.73;;;;;;;27.91;nan;62742.31;5092407;28;20208;-68
2023/09/13 11:34:58;;;;;;;1.45;1.35;;;;;;;27.95;nan;62794.19;5092307;28;20202;-68
2023/09/13 11:37:25;;;;;;;1.02;1.02;;;;;;;27.93;nan;62771.44;5092093;28;20627;-68
2023/09/13 11:40:15;;;;;;;1.17;1.17;;;;;;;28.23;nan;62765.31;5092165;28;20565;-67
2023/09/13 11:42:41;;;;;;;0.88;0.88;;;;;;;28.18;nan;62817.41;5091849;28;20538;-69
2023/09/13 11:45:08;;;;;;;1.08;1.02;;;;;;;28.18;nan;62783.22;5092184;28;20158;-67
2023/09/13 11:47:34;;;;;;;3.13;1.38;;;;;;;28.08;nan;62841.22;5091643;28;20177;-67
2023/09/13 11:50:00;;;;;;;0.88;0.88;;;;;;;28.33;nan;62800.44;5091435;28;20153;-68
2023/09/13 11:52:25;;;;;;;0.73;0.73;;;;;;;28.42;nan;62810.78;5091433;28;20208;-68